createdAt,value
2022-08-18T00:01:24.411Z,7.33
2022-08-18T00:03:56.966Z,7.00
2022-08-18T00:06:30.760Z,6.27
2022-08-18T00:09:06.244Z,7.07
2022-08-18T00:11:41.374Z,6.77
2022-08-18T00:14:22.202Z,7.20
2022-08-18T00:16:54.622Z,6.50
2022-08-18T00:19:45.725Z,6.33
2022-08-18T00:22:16.145Z,5.20
2022-08-18T00:24:50.745Z,6.27
2022-08-18T00:27:23.455Z,5.97
2022-08-18T00:29:53.520Z,7.30
2022-08-18T00:32:25.210Z,6.30
2022-08-18T00:34:53.880Z,8.60
2022-08-18T00:37:23.420Z,6.60
2022-08-18T00:39:53.736Z,6.80
2022-08-18T00:42:29.007Z,7.30
2022-08-18T00:45:04.676Z,6.07
2022-08-18T00:47:42.885Z,6.23
2022-08-18T00:50:20.161Z,6.90
2022-08-18T00:52:58.435Z,6.47
2022-08-18T00:55:29.221Z,5.90
2022-08-18T00:58:07.477Z,4.70
2022-08-18T01:00:36.069Z,4.57
2022-08-18T01:03:13.877Z,4.30
2022-08-18T01:05:55.617Z,3.80
2022-08-18T01:08:29.151Z,3.00
2022-08-18T01:10:59.022Z,2.70
2022-08-18T01:13:32.909Z,2.80
2022-08-18T01:16:24.315Z,2.57
2022-08-18T01:19:10.881Z,2.70
2022-08-18T01:21:50.544Z,2.73
2022-08-18T01:24:47.056Z,4.37
2022-08-18T01:27:18.329Z,4.50
2022-08-18T01:29:50.586Z,3.40
2022-08-18T01:32:23.592Z,3.33
2022-08-18T01:34:52.773Z,3.00
2022-08-18T01:37:23.680Z,3.30
2022-08-18T01:41:22.377Z,2.90
2022-08-18T01:42:43.266Z,2.60
2022-08-18T01:45:12.564Z,2.73
2022-08-18T01:47:47.607Z,3.10
2022-08-18T01:50:26.576Z,3.17
2022-08-18T01:52:54.256Z,3.90
2022-08-18T01:55:21.861Z,5.57
2022-08-18T01:57:49.510Z,5.60
2022-08-18T02:00:18.971Z,5.30
2022-08-18T02:02:57.251Z,3.83
2022-08-18T02:05:40.105Z,3.27
2022-08-18T02:08:07.905Z,2.90
2022-08-18T02:10:35.425Z,3.07
2022-08-18T02:13:02.893Z,3.27
2022-08-18T02:15:31.272Z,3.13
2022-08-18T02:17:58.880Z,3.60
2022-08-18T02:20:26.487Z,4.20
2022-08-18T02:22:53.942Z,3.97
2022-08-18T02:25:21.765Z,3.43
2022-08-18T02:27:49.315Z,3.17
2022-08-18T02:30:19.475Z,3.03
2022-08-18T02:32:47.398Z,3.00
2022-08-18T02:35:14.613Z,3.07
2022-08-18T02:37:43.097Z,3.03
2022-08-18T02:40:14.718Z,2.90
2022-08-18T02:42:46.733Z,3.10
2022-08-18T02:45:14.818Z,3.17
2022-08-18T02:47:43.007Z,3.00
2022-08-18T02:50:14.033Z,3.20
2022-08-18T02:52:41.681Z,2.93
2022-08-18T02:55:10.507Z,2.93
2022-08-18T02:57:44.440Z,3.13
2022-08-18T03:00:16.438Z,2.93
2022-08-18T03:02:53.329Z,3.10
2022-08-18T03:05:21.098Z,3.20
2022-08-18T03:07:50.154Z,3.13
2022-08-18T03:10:33.243Z,3.20
2022-08-18T03:13:02.073Z,3.03
2022-08-18T03:15:29.665Z,3.17
2022-08-18T03:17:57.334Z,3.03
2022-08-18T03:20:30.485Z,3.00
2022-08-18T03:23:05.792Z,3.00
2022-08-18T03:25:45.547Z,3.00
2022-08-18T03:28:14.175Z,2.87
2022-08-18T03:30:43.173Z,3.10
2022-08-18T03:33:11.071Z,2.90
2022-08-18T03:35:38.894Z,3.00
2022-08-18T03:38:05.891Z,2.93
2022-08-18T03:40:33.526Z,2.97
2022-08-18T03:43:06.336Z,3.03
2022-08-18T03:45:54.559Z,3.03
2022-08-18T03:48:22.011Z,3.00
2022-08-18T03:50:49.629Z,2.90
2022-08-18T03:53:17.134Z,3.00
2022-08-18T03:55:44.697Z,2.90
2022-08-18T03:58:15.565Z,3.07
2022-08-18T04:00:43.063Z,3.00
2022-08-18T04:03:11.094Z,2.83
2022-08-18T04:05:41.848Z,2.97
2022-08-18T04:08:09.394Z,2.93
2022-08-18T04:10:36.482Z,2.97
2022-08-18T04:13:06.479Z,2.90
2022-08-18T04:15:34.946Z,2.77
2022-08-18T04:18:08.659Z,2.90
2022-08-18T04:20:36.498Z,2.80
2022-08-18T04:23:04.072Z,2.90
2022-08-18T04:25:33.196Z,2.90
2022-08-18T04:28:03.315Z,2.90
2022-08-18T04:30:30.758Z,2.87
2022-08-18T04:32:58.440Z,2.83
2022-08-18T04:35:29.087Z,2.90
2022-08-18T04:37:56.623Z,2.97
2022-08-18T04:40:25.266Z,2.90
2022-08-18T04:42:52.976Z,2.93
2022-08-18T04:45:20.539Z,2.77
2022-08-18T04:47:48.118Z,2.90
2022-08-18T04:50:15.648Z,2.87
2022-08-18T04:53:02.286Z,2.73
2022-08-18T04:55:29.877Z,2.80
2022-08-18T04:57:59.233Z,2.90
2022-08-18T05:00:26.769Z,2.87
2022-08-18T05:02:56.685Z,2.80
2022-08-18T05:05:24.400Z,2.70
2022-08-18T05:07:51.932Z,2.73
2022-08-18T05:10:19.568Z,2.80
2022-08-18T05:12:48.538Z,2.90
2022-08-18T05:15:17.573Z,2.77
2022-08-18T05:17:45.114Z,2.70
2022-08-18T05:20:16.249Z,2.70
2022-08-18T05:22:45.692Z,2.80
2022-08-18T05:25:14.323Z,2.80
2022-08-18T05:27:44.009Z,2.63
2022-08-18T05:30:11.960Z,2.60
2022-08-18T05:32:48.653Z,2.60
2022-08-18T05:35:24.605Z,2.70
2022-08-18T05:38:17.880Z,2.60
2022-08-18T05:40:49.872Z,2.70
2022-08-18T05:43:17.985Z,2.70
2022-08-18T05:45:49.045Z,2.80
2022-08-18T05:48:16.680Z,2.67
2022-08-18T05:50:44.359Z,2.60
2022-08-18T05:53:18.507Z,2.73
2022-08-18T05:56:22.895Z,2.90
2022-08-18T05:58:55.372Z,3.10
2022-08-18T06:01:41.297Z,2.90
2022-08-18T06:05:04.757Z,2.97
2022-08-18T06:08:07.946Z,2.80
2022-08-18T06:10:40.976Z,2.70
2022-08-18T06:13:13.077Z,2.67
2022-08-18T06:15:51.146Z,2.50
2022-08-18T06:19:08.326Z,2.70
2022-08-18T06:22:03.637Z,2.70
2022-08-18T06:24:40.556Z,2.40
2022-08-18T06:28:05.060Z,2.60
2022-08-18T06:31:35.422Z,2.70
2022-08-18T06:34:57.621Z,3.10
2022-08-18T06:38:06.150Z,3.00
2022-08-18T06:40:38.094Z,3.60
2022-08-18T06:43:18.737Z,4.00
2022-08-18T06:45:53.669Z,3.40
2022-08-18T06:48:56.998Z,3.07
2022-08-18T06:51:31.970Z,3.10
2022-08-18T06:54:22.022Z,3.20
2022-08-18T06:56:56.434Z,3.60
2022-08-18T06:59:38.291Z,3.80
2022-08-18T07:02:41.883Z,3.53
2022-08-18T07:05:31.786Z,3.83
2022-08-18T07:08:25.896Z,4.20
2022-08-18T07:10:58.123Z,4.30
2022-08-18T07:13:32.994Z,4.43
2022-08-18T07:16:57.336Z,4.67
2022-08-18T07:19:35.972Z,3.87
2022-08-18T07:22:10.110Z,2.77
2022-08-18T07:24:56.229Z,2.00
2022-08-18T07:27:54.438Z,2.13
2022-08-18T07:30:44.135Z,3.03
2022-08-18T07:33:29.723Z,3.00
2022-08-18T07:36:08.735Z,2.97
2022-08-18T07:39:10.693Z,2.40
2022-08-18T07:41:50.730Z,3.03
2022-08-18T07:44:53.504Z,3.50
2022-08-18T07:48:27.507Z,3.07
2022-08-18T07:51:24.947Z,2.87
2022-08-18T07:54:49.304Z,4.20
2022-08-18T07:57:51.472Z,3.90
2022-08-18T08:04:26.670Z,4.47
2022-08-18T08:07:25.129Z,4.20
2022-08-18T08:09:55.743Z,4.30
2022-08-18T08:12:34.503Z,4.67
2022-08-18T08:15:27.747Z,4.93
2022-08-18T08:18:26.000Z,4.30
2022-08-18T08:20:58.161Z,3.83
2022-08-18T08:23:44.944Z,4.00
2022-08-18T08:26:44.878Z,3.87
2022-08-18T08:29:48.379Z,4.27
2022-08-18T08:32:32.122Z,4.13
2022-08-18T08:35:48.695Z,4.70
2022-08-18T08:38:42.650Z,4.30
2022-08-18T08:41:19.995Z,4.80
2022-08-18T08:44:03.569Z,5.33
2022-08-18T08:46:42.354Z,4.77
2022-08-18T08:49:30.861Z,5.97
2022-08-18T08:52:18.782Z,7.03
2022-08-18T08:54:53.489Z,6.57
2022-08-18T08:57:32.125Z,5.83
2022-08-18T09:00:07.085Z,7.00
2022-08-18T09:03:04.752Z,6.90
2022-08-18T09:05:41.914Z,5.20
2022-08-18T09:08:27.245Z,7.27
2022-08-18T09:11:27.230Z,6.50
2022-08-18T09:14:25.422Z,5.60
2022-08-18T09:17:33.948Z,5.60
2022-08-18T09:20:24.165Z,5.10
2022-08-18T09:23:06.166Z,6.00
2022-08-18T09:25:40.022Z,5.43
2022-08-18T09:28:30.395Z,4.43
2022-08-18T09:31:05.491Z,4.70
2022-08-18T09:33:45.218Z,8.43
2022-08-18T09:36:31.077Z,11.60
2022-08-18T09:42:59.438Z,3.70
2022-08-18T09:45:34.063Z,2.10
2022-08-18T09:48:35.179Z,3.57
2022-08-18T09:51:18.674Z,4.83
2022-08-18T09:53:46.737Z,5.00
2022-08-18T09:56:19.650Z,5.30
2022-08-18T09:59:02.762Z,3.40
2022-08-18T10:01:40.843Z,2.60
2022-08-18T10:04:33.449Z,4.10
2022-08-18T10:07:38.736Z,11.70
2022-08-18T10:11:00.704Z,20.50
2022-08-18T10:13:49.167Z,27.10
2022-08-18T10:17:13.207Z,14.70
2022-08-18T10:19:52.198Z,4.77
2022-08-18T10:22:47.399Z,1.60
2022-08-18T10:25:34.574Z,1.30
2022-08-18T10:28:05.461Z,2.27
2022-08-18T10:30:56.936Z,2.80
2022-08-18T10:34:16.618Z,2.33
2022-08-18T10:36:58.925Z,1.60
2022-08-18T10:39:39.590Z,1.90
2022-08-18T10:42:31.554Z,3.60
2022-08-18T10:45:24.981Z,5.13
2022-08-18T10:51:59.375Z,10.27
2022-08-18T10:55:02.876Z,9.10
2022-08-18T10:58:00.423Z,6.83
2022-08-18T11:01:03.993Z,7.10
2022-08-18T11:04:14.085Z,4.40
2022-08-18T11:06:56.546Z,2.27
2022-08-18T11:09:30.341Z,1.70
2022-08-18T11:12:04.775Z,1.77
2022-08-18T11:15:22.698Z,5.10
2022-08-18T11:18:11.573Z,3.70
2022-08-18T11:20:43.014Z,2.40
2022-08-18T11:23:17.445Z,3.20
2022-08-18T11:25:45.209Z,2.73
2022-08-18T11:28:30.126Z,3.70
2022-08-18T11:30:59.343Z,4.33
2022-08-18T11:33:28.313Z,6.57
2022-08-18T11:35:58.089Z,8.00
2022-08-18T11:38:29.557Z,8.27
2022-08-18T11:41:19.676Z,7.40
2022-08-18T11:43:48.514Z,7.40
2022-08-18T11:46:28.293Z,6.13
2022-08-18T11:49:33.603Z,6.30
2022-08-18T11:52:32.915Z,6.87
2022-08-18T11:55:16.280Z,4.00
2022-08-18T11:58:00.143Z,2.53
2022-08-18T12:00:45.619Z,2.60
2022-08-18T12:03:41.692Z,2.33
2022-08-18T12:06:26.946Z,2.37
2022-08-18T12:09:19.981Z,2.00
2022-08-18T12:12:24.325Z,2.10
2022-08-18T12:15:11.867Z,2.00
2022-08-18T12:17:52.200Z,1.90
2022-08-18T12:20:21.544Z,1.90
2022-08-18T12:22:49.949Z,1.90
2022-08-18T12:25:24.781Z,2.10
2022-08-18T12:27:54.232Z,3.37
2022-08-18T12:30:21.580Z,4.00
2022-08-18T12:33:00.823Z,5.10
2022-08-18T12:35:34.983Z,5.63
2022-08-18T12:38:03.511Z,6.00
2022-08-18T12:40:41.814Z,3.97
2022-08-18T12:43:09.403Z,3.33
2022-08-18T12:45:38.511Z,3.20
2022-08-18T12:48:08.043Z,1.70
2022-08-18T12:50:50.496Z,1.47
2022-08-18T12:53:29.625Z,1.70
2022-08-18T12:56:25.361Z,2.10
2022-08-18T12:58:54.100Z,2.10
2022-08-18T13:04:12.694Z,2.60
2022-08-18T13:07:00.590Z,1.60
2022-08-18T13:09:34.573Z,2.23
2022-08-18T13:12:16.727Z,2.50
2022-08-18T13:14:45.397Z,2.30
2022-08-18T13:17:30.508Z,2.20
2022-08-18T13:20:16.597Z,2.00
2022-08-18T13:22:44.382Z,1.90
2022-08-18T13:25:32.100Z,1.90
2022-08-18T13:28:01.768Z,2.27
2022-08-18T13:30:32.065Z,2.20
2022-08-18T13:33:02.580Z,2.10
2022-08-18T13:35:37.997Z,2.23
2022-08-18T13:38:14.094Z,2.30
2022-08-18T13:40:49.711Z,2.40
2022-08-18T13:43:23.398Z,2.30
2022-08-18T13:45:52.956Z,2.27
2022-08-18T13:48:25.229Z,2.40
2022-08-18T13:50:58.823Z,2.80
2022-08-18T13:53:31.662Z,2.90
2022-08-18T13:55:59.924Z,3.73
2022-08-18T13:58:29.324Z,2.53
2022-08-18T14:01:42.549Z,2.47
2022-08-18T14:03:51.645Z,2.37
2022-08-18T14:06:24.157Z,2.27
2022-08-18T14:08:53.891Z,2.67
2022-08-18T14:11:33.033Z,2.87
2022-08-18T14:14:02.254Z,2.60
2022-08-18T14:16:31.335Z,2.37
2022-08-18T14:19:17.994Z,2.30
2022-08-18T14:22:11.377Z,2.00
2022-08-18T14:25:01.013Z,1.90
2022-08-18T14:27:35.253Z,1.90
2022-08-18T14:30:11.031Z,2.13
2022-08-18T14:32:48.812Z,2.10
2022-08-18T14:36:03.700Z,2.50
2022-08-18T14:38:06.807Z,2.33
2022-08-18T14:40:41.809Z,1.70
2022-08-18T14:43:16.600Z,1.90
2022-08-18T14:45:48.662Z,1.80
2022-08-18T14:48:20.232Z,1.90
2022-08-18T14:50:52.874Z,2.00
2022-08-18T14:53:24.282Z,2.03
2022-08-18T14:55:54.978Z,2.10
2022-08-18T14:58:28.812Z,2.13
2022-08-18T15:01:00.765Z,2.10
2022-08-18T15:03:31.873Z,2.43
2022-08-18T15:06:04.637Z,2.70
2022-08-18T15:08:35.587Z,3.27
2022-08-18T15:11:11.855Z,3.33
2022-08-18T15:13:46.019Z,3.20
2022-08-18T15:16:15.808Z,2.60
2022-08-18T15:18:45.415Z,2.40
2022-08-18T15:21:35.237Z,2.47
2022-08-18T15:24:26.174Z,2.60
2022-08-18T15:26:57.892Z,3.37
2022-08-18T15:29:30.939Z,4.60
2022-08-18T15:32:05.535Z,4.50
2022-08-18T15:34:47.361Z,6.00
2022-08-18T15:37:22.338Z,5.50
2022-08-18T15:40:21.728Z,5.73
2022-08-18T15:43:01.699Z,4.90
2022-08-18T15:45:43.485Z,4.47
2022-08-18T15:48:25.436Z,3.17
2022-08-18T15:50:53.355Z,3.13
2022-08-18T15:53:25.610Z,2.97
2022-08-18T15:55:57.983Z,2.23
2022-08-18T15:58:26.905Z,2.50
2022-08-18T16:00:58.948Z,1.83
2022-08-18T16:03:26.653Z,1.97
2022-08-18T16:05:55.335Z,1.80
2022-08-18T16:08:25.922Z,1.83
2022-08-18T16:10:54.816Z,2.20
2022-08-18T16:13:24.484Z,2.20
2022-08-18T16:15:52.320Z,2.40
2022-08-18T16:18:21.021Z,3.13
2022-08-18T16:20:48.645Z,2.73
2022-08-18T16:23:20.237Z,3.40
2022-08-18T16:25:47.778Z,3.47
2022-08-18T16:28:15.283Z,2.97
2022-08-18T16:30:42.792Z,2.90
2022-08-18T16:33:10.483Z,3.13
2022-08-18T16:35:38.104Z,3.60
2022-08-18T16:38:08.538Z,4.33
2022-08-18T16:40:37.702Z,4.50
2022-08-18T16:43:07.033Z,4.60
2022-08-18T16:45:38.302Z,4.70
2022-08-18T16:48:09.345Z,3.97
2022-08-18T16:50:38.285Z,3.80
2022-08-18T16:53:06.030Z,3.80
2022-08-18T16:55:34.043Z,3.30
2022-08-18T16:58:20.000Z,3.57
2022-08-18T17:01:05.879Z,4.27
2022-08-18T17:03:51.787Z,3.60
2022-08-18T17:06:20.233Z,3.40
2022-08-18T17:08:48.280Z,3.00
2022-08-18T17:11:19.919Z,3.03
2022-08-18T17:13:50.048Z,3.37
2022-08-18T17:16:20.721Z,3.20
2022-08-18T17:18:48.845Z,3.30
2022-08-18T17:21:21.675Z,2.83
2022-08-18T17:23:50.261Z,3.20
2022-08-18T17:27:05.914Z,2.80
2022-08-18T17:30:05.297Z,2.47
2022-08-18T17:32:42.859Z,2.50
2022-08-18T17:35:35.369Z,2.77
2022-08-18T17:38:46.299Z,2.70
2022-08-18T17:41:14.215Z,2.67
2022-08-18T17:46:28.475Z,2.63
2022-08-18T17:49:04.975Z,2.90
2022-08-18T17:51:47.092Z,3.00
2022-08-18T17:54:39.699Z,3.27
2022-08-18T17:57:28.684Z,3.30
2022-08-18T18:00:11.391Z,3.83
2022-08-18T18:02:46.083Z,3.80
2022-08-18T18:05:19.072Z,4.03
2022-08-18T18:07:50.246Z,4.40
2022-08-18T18:10:50.999Z,3.83
2022-08-18T18:13:28.472Z,3.90
2022-08-18T18:16:01.139Z,3.97
2022-08-18T18:18:46.665Z,4.13
2022-08-18T18:21:14.726Z,3.37
2022-08-18T18:23:46.652Z,3.73
2022-08-18T18:26:30.773Z,2.97
2022-08-18T18:29:22.049Z,2.73
2022-08-18T18:32:17.211Z,2.67
2022-08-18T18:34:46.289Z,2.37
2022-08-18T18:37:29.266Z,2.63
2022-08-18T18:40:05.728Z,2.57
2022-08-18T18:42:36.681Z,3.00
2022-08-18T18:45:23.733Z,2.70
2022-08-18T18:48:44.980Z,2.67
2022-08-18T18:51:50.408Z,2.70
2022-08-18T18:55:01.489Z,3.03
2022-08-18T18:57:57.224Z,3.30
2022-08-18T19:00:37.310Z,3.57
2022-08-18T19:03:24.123Z,4.47
2022-08-18T19:06:33.719Z,4.27
2022-08-18T19:09:13.414Z,5.17
2022-08-18T19:12:05.248Z,5.80
2022-08-18T19:14:52.163Z,5.80
2022-08-18T19:17:53.946Z,6.40
2022-08-18T19:20:37.192Z,7.30
2022-08-18T19:23:44.425Z,6.73
2022-08-18T19:26:27.409Z,8.30
2022-08-18T19:29:13.749Z,8.90
2022-08-18T19:31:51.612Z,8.67
2022-08-18T19:34:32.483Z,10.07
2022-08-18T19:37:42.279Z,8.30
2022-08-18T19:40:24.683Z,11.40
2022-08-18T19:43:17.343Z,13.20
2022-08-18T19:46:18.043Z,12.03
2022-08-18T19:49:09.756Z,10.10
2022-08-18T19:51:41.693Z,9.70
2022-08-18T19:54:35.607Z,10.37
2022-08-18T19:57:22.824Z,7.70
2022-08-18T20:00:11.644Z,8.30
2022-08-18T20:03:04.128Z,7.57
2022-08-18T20:05:46.576Z,6.47
2022-08-18T20:08:39.230Z,6.83
2022-08-18T20:11:41.866Z,5.97
2022-08-18T20:14:17.123Z,5.80
2022-08-18T20:17:21.692Z,6.00
2022-08-18T20:20:14.941Z,5.80
2022-08-18T20:22:55.162Z,5.43
2022-08-18T20:25:24.279Z,3.67
2022-08-18T20:28:30.945Z,3.60
2022-08-18T20:31:12.530Z,3.13
2022-08-18T20:33:47.050Z,3.70
2022-08-18T20:36:33.525Z,4.50
2022-08-18T20:39:32.040Z,7.00
2022-08-18T20:42:01.644Z,7.53
2022-08-18T20:44:48.512Z,11.40
2022-08-18T20:48:16.530Z,11.00
2022-08-18T20:51:08.968Z,12.67
2022-08-18T20:54:03.742Z,10.93
2022-08-18T20:56:50.632Z,8.77
2022-08-18T20:59:34.828Z,7.20
2022-08-18T21:02:38.262Z,5.67
2022-08-18T21:05:10.384Z,5.53
2022-08-18T21:08:19.548Z,6.77
2022-08-18T21:11:00.416Z,5.03
2022-08-18T21:13:42.776Z,3.77
2022-08-18T21:16:14.768Z,3.13
2022-08-18T21:19:00.785Z,3.10
2022-08-18T21:21:59.323Z,3.20
2022-08-18T21:24:42.196Z,3.50
2022-08-18T21:27:26.187Z,4.87
2022-08-18T21:29:59.152Z,9.10
2022-08-18T21:32:33.997Z,10.17
2022-08-18T21:35:18.818Z,7.50
2022-08-18T21:37:59.716Z,6.30
2022-08-18T21:40:49.088Z,9.10
2022-08-18T21:43:41.325Z,7.10
2022-08-18T21:46:13.408Z,3.97
2022-08-18T21:48:53.692Z,3.67
2022-08-18T21:51:30.580Z,3.23
2022-08-18T21:53:59.560Z,4.17
2022-08-18T21:56:36.025Z,4.60
2022-08-18T21:59:18.396Z,5.10
2022-08-18T22:01:57.184Z,4.80
2022-08-18T22:04:36.573Z,5.53
2022-08-18T22:07:34.398Z,5.03
2022-08-18T22:10:40.210Z,5.27
2022-08-18T22:13:46.429Z,4.00
2022-08-18T22:16:36.061Z,3.03
2022-08-18T22:19:24.048Z,3.10
2022-08-18T22:22:24.762Z,3.20
2022-08-18T22:24:58.449Z,3.33
2022-08-18T22:27:27.457Z,3.43
2022-08-18T22:30:04.489Z,3.53
2022-08-18T22:32:37.492Z,3.60
2022-08-18T22:35:08.100Z,3.70
2022-08-18T22:37:48.687Z,3.47
2022-08-18T22:40:21.586Z,3.50
2022-08-18T22:42:49.754Z,3.60
2022-08-18T22:45:18.707Z,3.53
2022-08-18T22:47:46.201Z,3.70
2022-08-18T22:50:14.892Z,3.43
2022-08-18T22:52:47.386Z,3.60
2022-08-18T22:55:21.878Z,3.80
2022-08-18T22:57:55.785Z,3.57
2022-08-18T23:00:25.764Z,3.70
2022-08-18T23:02:54.428Z,3.70
2022-08-18T23:05:22.230Z,3.77
2022-08-18T23:07:49.931Z,3.90
2022-08-18T23:10:17.933Z,3.87
2022-08-18T23:12:47.683Z,3.90
2022-08-18T23:15:17.762Z,3.50
2022-08-18T23:17:45.265Z,3.40
2022-08-18T23:20:19.252Z,3.37
2022-08-18T23:22:48.126Z,3.23
2022-08-18T23:25:16.157Z,3.10
2022-08-18T23:27:43.771Z,3.17
2022-08-18T23:30:14.755Z,2.90
2022-08-18T23:32:43.496Z,3.07
2022-08-18T23:35:11.021Z,3.10
2022-08-18T23:37:39.409Z,3.17
2022-08-18T23:40:13.211Z,2.93
2022-08-18T23:42:40.850Z,2.83
2022-08-18T23:45:09.050Z,2.80
2022-08-18T23:47:36.798Z,2.93
2022-08-18T23:50:06.588Z,2.83
2022-08-18T23:52:34.049Z,2.77
2022-08-18T23:55:09.938Z,2.70
2022-08-18T23:57:37.434Z,2.87
